Terminal Aerodrome Forecast
Issued by NWS Houston/Galveston, TX

Home | Current Version | Previous Version | Text Only | Print | Product List | Glossary On
Versions: 1 2 3 4 5 6 7 8 9 10 11 12 13 14 15 16 17 18 19 20 21 22 23 24 25 26
000
FTUS44 KHGX 221353 AAB
TAFGLS
TAF AMD
KGLS 221353Z 2214/2312 00000KT P6SM FEW025 OVC250
     FM221420 01013G33KT P6SM VCTS BKN025CB OVC120
     FM221430 01018G28KT 5SM TSRA BKN020CB OVC060
      TEMPO 2215/2216 2SM +TSRA
     FM221800 34012G22KT P6SM SCT025 BKN150
     FM222300 34016G26KT P6SM SCT180=

USA.gov is the U.S. government's official web portal to all federal, state and local government web resources and services.